Traveller II — WDF7546 — position and weather

sailwx.info

Track history (hours):
 
Tides and Currents Weather Stations Pressure Air Temp Water Temp Dewpoint Dewpoint Depression Visibility Wind Speed Wind Dir Waves Ship Positions

Traveller II

Owner: Luedtke, Richard R, Manahawkin, NJ. More information available from US FCC via Universal Licensing System and Coast Guard Vessel Documentation Center.

Last reported at 2017-Oct-16 18:06 UTC. Time now 2017-Oct-18 05:40 UTC.
Position N 39°46' W 074°06'.

Length 13 m.

Type: Fishing. MMSI: 367485580.

Date/timePositionNaut miles runAvg speedWind from/ knotsBaromVisibWave heightAir tempDewpointWater temp
2017-Oct-16 18:06N 39°46' W 074°06'1 7.5
2017-Oct-16 18:00N 39°46' W 074°05'2 0.3
2017-Oct-16 09:36N 39°48' W 074°05'1 8.9
2017-Oct-16 09:30N 39°47' W 074°05'  
2017-Oct-10 13:10N 39°46' W 074°06'1 7.3
2017-Oct-10 12:59N 39°47' W 074°05'3 2.7
2017-Oct-10 11:49N 39°50' W 074°05'3 2.3
2017-Oct-10 10:43N 39°47' W 074°04'2 8.9
2017-Oct-10 10:31N 39°46' W 074°05'  
2017-Oct-07 19:49N 39°46' W 074°06'2 5.4
2017-Oct-07 19:28N 39°47' W 074°04'8 0.9
2017-Oct-07 10:43N 39°55' W 074°04'6 6.6
2017-Oct-07 09:49N 39°49' W 074°05'3 9.4
2017-Oct-07 09:30N 39°46' W 074°05'  
Track history (hours):
 
Tides and Currents Weather Stations Pressure Air Temp Water Temp Dewpoint Dewpoint Depression Visibility Wind Speed Wind Dir Waves Ship Positions

Traveller II

Owner: Luedtke, Richard R, Manahawkin, NJ. More information available from US FCC via Universal Licensing System and Coast Guard Vessel Documentation Center.

Last reported at 2017-Oct-16 18:06 UTC. Time now 2017-Oct-18 05:40 UTC.
Position N 39°46' W 074°06'.

Length 13 m.

Type: Fishing. MMSI: 367485580.

Date/timePositionNaut miles runAvg speedWind from/ knotsBaromVisibWave heightAir tempDewpointWater temp
2017-Oct-16 18:06N 39°46' W 074°06'1 7.5
2017-Oct-16 18:00N 39°46' W 074°05'2 0.3
2017-Oct-16 09:36N 39°48' W 074°05'1 8.9
2017-Oct-16 09:30N 39°47' W 074°05'  
2017-Oct-10 13:10N 39°46' W 074°06'1 7.3
2017-Oct-10 12:59N 39°47' W 074°05'3 2.7
2017-Oct-10 11:49N 39°50' W 074°05'3 2.3
2017-Oct-10 10:43N 39°47' W 074°04'2 8.9
2017-Oct-10 10:31N 39°46' W 074°05'  
2017-Oct-07 19:49N 39°46' W 074°06'2 5.4
2017-Oct-07 19:28N 39°47' W 074°04'8 0.9
2017-Oct-07 10:43N 39°55' W 074°04'6 6.6
2017-Oct-07 09:49N 39°49' W 074°05'3 9.4
2017-Oct-07 09:30N 39°46' W 074°05'  

Dump ship's entire track history